Time;durP1;ratioP1;P1;durP2;ratioP2;P2;SDS_P1;SDS_P2;PMS_P1;PMS_P2;Temp;Humidity;BMP_temperature;BMP_pressure;BME280_temperature;BME280_humidity;BME280_pressure;Samples;Min_cycle;Max_cycle;Signal;HPM_P1;HPM_P2
2021/07/09 00:02:07;;;;;;;4.70;4.23;;;;;;;22.94;59.10;94342.28;6195605;23;20023;-87
2021/07/09 00:04:35;;;;;;;6.18;4.80;;;;;;;22.81;59.29;94344.34;6165413;23;20507;-86
2021/07/09 00:07:04;;;;;;;7.15;5.07;;;;;;;23.09;60.26;94383.81;6165735;23;20008;-87
2021/07/09 00:09:30;;;;;;;5.70;5.15;;;;;;;22.66;61.09;94333.56;6205375;23;20078;-87
2021/07/09 00:11:58;;;;;;;6.07;5.40;;;;;;;22.69;62.13;94368.66;6126237;23;20172;-87
2021/07/09 00:14:41;;;;;;;;;;;;;;;;;;;;;
2021/07/09 00:17:07;;;;;;;8.95;5.25;;;;;;;22.74;62.68;94386.50;6193695;23;20048;-86
2021/07/09 00:19:35;;;;;;;6.00;5.35;;;;;;;22.57;63.08;94363.41;6193403;23;20098;-87
2021/07/09 00:22:04;;;;;;;6.18;5.38;;;;;;;22.61;63.33;94391.19;6192737;23;20008;-87
2021/07/09 00:24:30;;;;;;;7.22;6.03;;;;;;;22.50;64.11;94382.06;6195680;23;20012;-87
2021/07/09 00:26:55;;;;;;;7.65;5.68;;;;;;;22.47;64.31;94385.47;6194150;23;20009;-86
2021/07/09 00:29:22;;;;;;;8.20;5.40;;;;;;;22.51;63.97;94390.94;6192629;23;20578;-86
2021/07/09 00:31:48;;;;;;;6.20;5.15;;;;;;;22.12;64.74;94336.16;6190029;23;20548;-86
2021/07/09 00:34:15;;;;;;;10.82;5.60;;;;;;;22.06;64.72;94318.69;6163715;23;20017;-86
2021/07/09 00:36:40;;;;;;;6.15;5.60;;;;;;;22.11;65.65;94364.19;6166591;23;20004;-86
2021/07/09 00:39:08;;;;;;;8.65;6.15;;;;;;;21.89;65.67;94320.56;6194682;23;20476;-86
2021/07/09 00:41:38;;;;;;;6.72;5.93;;;;;;;22.17;66.03;94379.75;6164788;23;20857;-87
2021/07/09 00:44:05;;;;;;;9.18;5.57;;;;;;;22.02;66.81;94357.06;6200044;23;20092;-86
2021/07/09 00:46:36;;;;;;;6.65;5.68;;;;;;;22.34;65.61;94365.91;6167890;23;20125;-87
2021/07/09 00:49:06;;;;;;;9.00;6.07;;;;;;;22.18;66.61;94372.44;6198104;23;20019;-87
2021/07/09 00:51:35;;;;;;;11.18;5.90;;;;;;;21.82;67.32;94333.84;6196703;23;20008;-86
2021/07/09 00:54:07;;;;;;;8.02;6.65;;;;;;;21.94;67.36;94359.94;6186580;23;20024;-86
2021/07/09 00:56:35;;;;;;;7.45;6.65;;;;;;;21.68;67.39;94306.59;6179110;23;20237;-87
2021/07/09 00:59:01;;;;;;;9.65;6.13;;;;;;;21.54;67.84;94319.66;6169568;23;20016;-86
2021/07/09 01:01:28;;;;;;;6.07;5.55;;;;;;;21.70;68.42;94351.97;6143772;23;20016;-86
2021/07/09 01:03:53;;;;;;;6.15;5.55;;;;;;;21.74;68.28;94350.94;6170437;23;20008;-87
2021/07/09 01:06:19;;;;;;;8.65;6.53;;;;;;;21.59;68.00;94322.09;6205187;23;20493;-87
2021/07/09 01:08:46;;;;;;;6.97;6.07;;;;;;;21.86;67.92;94348.16;6195239;23;20467;-87
2021/07/09 01:11:12;;;;;;;7.18;6.25;;;;;;;21.73;67.96;94322.47;6156942;23;20024;-87
2021/07/09 01:13:45;;;;;;;7.70;6.85;;;;;;;21.70;68.42;94333.91;6167536;23;20336;-87
2021/07/09 01:16:12;;;;;;;8.32;7.05;;;;;;;21.47;68.25;94298.75;6167138;23;20187;-88
2021/07/09 01:18:38;;;;;;;7.57;6.78;;;;;;;21.40;68.85;94316.59;6197919;23;20008;-87
2021/07/09 01:21:09;;;;;;;11.98;7.30;;;;;;;21.44;69.02;94336.31;6197148;23;20023;-88
2021/07/09 01:23:35;;;;;;;7.35;6.65;;;;;;;21.64;68.28;94347.97;6168269;23;20020;-87
2021/07/09 01:26:10;;;;;;;8.52;6.25;;;;;;;21.11;69.52;94298.91;6200578;23;20008;-88
2021/07/09 01:28:40;;;;;;;;;;;;;;;21.50;69.61;94361.81;6167097;23;20016;-87
2021/07/09 01:31:07;;;;;;;11.23;6.38;;;;;;;21.06;69.83;94307.97;6169644;23;19903;-87
2021/07/09 01:33:36;;;;;;;9.63;7.10;;;;;;;21.24;70.75;94369.53;6207524;23;20008;-87
2021/07/09 01:36:11;;;;;;;10.25;7.32;;;;;;;20.82;70.69;94299.97;6189955;23;20020;-88
2021/07/09 01:38:37;;;;;;;8.57;7.60;;;;;;;21.22;70.28;94358.31;6168011;23;20501;-86
2021/07/09 01:41:02;;;;;;;9.93;7.45;;;;;;;21.13;70.29;94345.81;6167059;23;20017;-87
2021/07/09 01:43:29;;;;;;;11.43;7.78;;;;;;;21.14;70.91;94371.59;6186669;23;20351;-87
2021/07/09 01:45:54;;;;;;;8.23;7.43;;;;;;;20.97;70.88;94328.81;6192908;23;20000;-87
2021/07/09 01:48:29;;;;;;;8.35;7.55;;;;;;;20.87;70.80;94313.16;6196348;23;20011;-87
2021/07/09 01:50:57;;;;;;;9.00;8.07;;;;;;;21.16;71.01;94368.53;6196047;23;20066;-86
2021/07/09 01:53:23;;;;;;;8.13;7.32;;;;;;;21.01;72.08;94374.63;6167112;23;20017;-87
2021/07/09 01:55:49;;;;;;;9.25;7.50;;;;;;;20.89;71.87;94353.13;6128587;23;20028;-86
2021/07/09 01:58:18;;;;;;;11.18;8.13;;;;;;;20.81;71.82;94335.25;6194805;23;20016;-87
2021/07/09 02:00:46;;;;;;;11.57;7.85;;;;;;;20.89;71.97;94347.75;6197708;23;20004;-86
2021/07/09 02:03:12;;;;;;;14.70;8.30;;;;;;;20.59;72.09;94310.44;6167741;23;20111;-86
2021/07/09 02:05:41;;;;;;;10.98;7.60;;;;;;;20.70;72.99;94349.16;6196423;23;20147;-87
2021/07/09 02:08:06;;;;;;;13.90;7.07;;;;;;;20.58;72.90;94337.63;6145507;23;20052;-87
2021/07/09 02:10:37;;;;;;;9.60;7.93;;;;;;;20.86;73.09;94370.72;6183043;23;20055;-87
2021/07/09 02:13:03;;;;;;;12.18;7.75;;;;;;;20.64;72.96;94341.66;6163903;23;20012;-87
2021/07/09 02:15:39;;;;;;;10.93;7.53;;;;;;;20.54;73.08;94326.78;6207981;23;20004;-87
2021/07/09 02:18:08;;;;;;;9.02;8.13;;;;;;;20.67;73.12;94351.75;6164034;23;20384;-87
2021/07/09 02:20:35;;;;;;;8.07;7.32;;;;;;;20.52;73.19;94339.00;6162996;23;20448;-86
2021/07/09 02:23:03;;;;;;;9.45;8.27;;;;;;;20.62;73.85;94382.25;6193765;23;20095;-87
2021/07/09 02:25:35;;;;;;;8.95;7.97;;;;;;;20.67;74.05;94387.41;6200458;23;20459;-87
2021/07/09 02:28:01;;;;;;;12.38;9.32;;;;;;;20.53;74.73;94388.88;6196021;23;20000;-88
2021/07/09 02:30:29;;;;;;;10.52;8.82;;;;;;;20.29;74.82;94347.47;6194842;23;20014;-87
2021/07/09 02:32:56;;;;;;;9.85;8.85;;;;;;;20.39;74.57;94361.59;6194643;23;20063;-87
2021/07/09 02:35:25;;;;;;;11.43;8.18;;;;;;;20.25;74.45;94335.06;6193037;23;20032;-88
2021/07/09 02:37:56;;;;;;;8.13;7.28;;;;;;;20.35;74.34;94347.28;6189199;23;20738;-88
2021/07/09 02:40:25;;;;;;;12.38;8.35;;;;;;;20.56;74.47;94398.97;6189716;23;20116;-86
2021/07/09 02:42:57;;;;;;;9.02;8.13;;;;;;;20.30;74.17;94345.56;6134953;23;20004;-87
2021/07/09 02:45:23;;;;;;;9.82;8.40;;;;;;;20.31;74.88;94382.06;6204573;23;20003;-88
2021/07/09 02:47:49;;;;;;;9.75;8.75;;;;;;;20.06;75.81;94365.13;6194208;23;20103;-86
2021/07/09 02:50:28;;;;;;;13.55;8.90;;;;;;;20.05;75.75;94354.72;6166974;23;20070;-87
2021/07/09 02:52:54;;;;;;;13.57;8.98;;;;;;;20.20;75.82;94392.41;6198770;23;20017;-87
2021/07/09 02:55:20;;;;;;;8.52;7.75;;;;;;;20.22;75.67;94382.16;6193716;23;20329;-86
2021/07/09 02:57:52;;;;;;;9.50;8.55;;;;;;;20.18;75.71;94381.22;6197604;23;20428;-87
2021/07/09 03:00:19;;;;;;;9.00;8.10;;;;;;;19.81;75.79;94332.13;6195095;23;20021;-88
2021/07/09 03:02:44;;;;;;;10.13;8.88;;;;;;;19.82;76.58;94344.41;6191379;23;20023;-87
2021/07/09 03:05:11;;;;;;;13.90;9.82;;;;;;;20.16;76.62;94394.22;6196655;23;20016;-87
2021/07/09 03:07:37;;;;;;;12.52;9.85;;;;;;;20.30;76.15;94380.47;6192024;23;20747;-87
2021/07/09 03:10:05;;;;;;;11.95;9.27;;;;;;;20.08;76.31;94336.06;6203038;23;20004;-87
2021/07/09 03:12:35;;;;;;;11.90;9.40;;;;;;;20.33;75.55;94361.81;6206155;23;20074;-86
2021/07/09 03:15:01;;;;;;;9.32;8.43;;;;;;;20.81;74.67;94389.78;6194596;23;20170;-87
2021/07/09 03:17:26;;;;;;;13.30;9.20;;;;;;;20.72;74.50;94363.00;6193798;23;20067;-87
2021/07/09 03:19:52;;;;;;;11.95;8.70;;;;;;;20.79;73.64;94332.91;6184952;23;20225;-87
2021/07/09 03:22:20;;;;;;;12.73;9.35;;;;;;;21.28;72.49;94365.81;6155455;23;20027;-87
2021/07/09 03:24:48;;;;;;;9.73;8.82;;;;;;;21.69;71.11;94380.78;6196220;23;20004;-87
2021/07/09 03:27:16;;;;;;;11.88;9.27;;;;;;;22.00;70.00;94367.38;6172281;23;20021;-87
2021/07/09 03:29:45;;;;;;;12.77;9.52;;;;;;;22.29;68.10;94327.69;6181842;23;20045;-87
2021/07/09 03:32:17;;;;;;;10.85;9.70;;;;;;;22.90;66.41;94365.69;6181078;23;20085;-88
2021/07/09 03:34:42;;;;;;;9.70;8.52;;;;;;;23.44;65.61;94381.84;6160735;23;20025;-87
2021/07/09 03:37:10;;;;;;;14.05;8.57;;;;;;;23.72;63.63;94366.25;6180718;23;20021;-87
2021/07/09 03:39:42;;;;;;;8.52;7.72;;;;;;;24.12;61.82;94344.22;6156771;23;20009;-88
2021/07/09 03:42:08;;;;;;;10.00;8.10;;;;;;;24.73;60.20;94364.09;6182555;23;20016;-87
2021/07/09 03:44:33;;;;;;;8.90;7.53;;;;;;;25.30;57.80;94371.88;6187709;23;20016;-88
2021/07/09 03:46:59;;;;;;;8.43;7.38;;;;;;;25.55;56.28;94339.75;6180851;23;20451;-87
2021/07/09 03:49:24;;;;;;;10.95;8.05;;;;;;;26.20;54.75;94369.78;6190203;23;20380;-87
2021/07/09 03:51:52;;;;;;;9.60;7.68;;;;;;;26.56;53.72;94375.53;6154674;23;20225;-87
2021/07/09 03:54:22;;;;;;;9.25;7.50;;;;;;;26.71;51.39;94323.00;6157324;23;20035;-86
2021/07/09 03:56:50;;;;;;;11.23;6.88;;;;;;;27.20;50.86;94349.66;6179085;23;20217;-88
2021/07/09 03:59:15;;;;;;;9.10;7.25;;;;;;;27.53;49.65;94348.66;6177454;23;20016;-87
2021/07/09 04:01:41;;;;;;;10.98;7.43;;;;;;;27.53;48.93;94318.78;6187355;23;20380;-87
2021/07/09 04:04:06;;;;;;;8.63;6.85;;;;;;;28.01;48.49;94343.72;6139874;23;20038;-84
2021/07/09 04:06:33;;;;;;;9.27;7.07;;;;;;;28.46;48.09;94361.28;6117478;23;20019;-87
2021/07/09 04:08:59;;;;;;;7.80;7.00;;;;;;;28.67;47.01;94331.38;6179145;23;20527;-87
2021/07/09 04:11:25;;;;;;;10.82;6.25;;;;;;;29.06;46.17;94363.22;6153668;23;20092;-88
2021/07/09 04:13:51;;;;;;;9.20;6.55;;;;;;;29.52;45.00;94374.75;6173471;23;20416;-87
2021/07/09 04:16:19;;;;;;;6.70;6.18;;;;;;;29.21;44.86;94375.63;6153339;23;20506;-86
2021/07/09 04:18:49;;;;;;;7.22;6.18;;;;;;;28.84;45.13;94336.03;6183479;23;20421;-86
2021/07/09 04:21:16;;;;;;;7.18;6.00;;;;;;;29.03;45.04;94326.66;6129716;23;20078;-87
2021/07/09 04:23:44;;;;;;;6.68;5.95;;;;;;;29.79;43.59;94347.03;6179107;23;20017;-87
2021/07/09 04:26:11;;;;;;;6.85;6.15;;;;;;;29.95;42.75;94350.88;6177300;23;20090;-84
2021/07/09 04:28:36;;;;;;;6.85;6.07;;;;;;;29.80;43.09;94343.13;6179197;23;20746;-84
2021/07/09 04:31:02;;;;;;;8.32;6.22;;;;;;;30.20;42.47;94337.09;6180841;23;20488;-84
2021/07/09 04:33:27;;;;;;;9.82;6.32;;;;;;;29.94;42.26;94345.81;6185492;23;20767;-87
2021/07/09 04:35:55;;;;;;;10.70;5.80;;;;;;;30.05;42.16;94371.84;6180680;23;20760;-84
2021/07/09 04:38:24;;;;;;;10.98;7.38;;;;;;;30.10;42.29;94341.41;6115520;23;20241;-83
2021/07/09 04:40:51;;;;;;;7.35;6.47;;;;;;;29.88;41.68;94336.47;6175585;23;20013;-84
2021/07/09 04:43:17;;;;;;;9.02;6.13;;;;;;;29.97;42.12;94358.63;6192409;23;20016;-83
2021/07/09 04:45:42;;;;;;;7.85;6.13;;;;;;;30.54;41.67;94368.00;6185068;23;20783;-87
2021/07/09 04:48:18;;;;;;;7.97;5.47;;;;;;;30.61;40.79;94341.84;6160847;23;20383;-87
2021/07/09 04:50:44;;;;;;;6.53;5.93;;;;;;;30.44;40.96;94336.13;6155143;23;20062;-86
2021/07/09 04:53:09;;;;;;;9.52;6.50;;;;;;;30.81;40.85;94346.34;6189549;23;20503;-87
2021/07/09 04:55:38;;;;;;;11.13;6.82;;;;;;;31.16;40.18;94369.84;6111172;23;20017;-87
2021/07/09 04:58:03;;;;;;;9.15;6.30;;;;;;;31.92;39.44;94363.09;6175930;23;20004;-87
2021/07/09 05:00:29;;;;;;;9.00;6.03;;;;;;;31.48;39.00;94314.06;6187726;23;20641;-87
2021/07/09 05:02:58;;;;;;;9.93;5.85;;;;;;;31.56;39.15;94348.34;6184964;23;20020;-86
2021/07/09 05:05:26;;;;;;;9.10;6.20;;;;;;;31.38;39.32;94337.59;6180345;23;20063;-88
2021/07/09 05:07:52;;;;;;;7.95;5.93;;;;;;;31.84;39.14;94353.47;6180607;23;20498;-87
2021/07/09 05:10:18;;;;;;;7.80;5.80;;;;;;;31.70;39.25;94332.56;6169782;23;20020;-87
2021/07/09 05:12:43;;;;;;;8.93;6.38;;;;;;;31.85;38.67;94335.88;6140268;23;20624;-87
2021/07/09 05:15:09;;;;;;;6.78;5.95;;;;;;;31.77;38.83;94356.28;6183519;23;20051;-86
2021/07/09 05:17:35;;;;;;;9.20;6.38;;;;;;;31.58;39.48;94340.50;6183089;23;20184;-86
2021/07/09 05:20:01;;;;;;;9.95;6.68;;;;;;;31.57;39.28;94320.63;6183788;23;20775;-88
2021/07/09 05:22:27;;;;;;;7.78;6.57;;;;;;;31.92;39.15;94335.78;6156448;23;20009;-85
2021/07/09 05:24:54;;;;;;;9.55;6.95;;;;;;;31.71;39.51;94323.19;6152551;23;20473;-84
2021/07/09 05:27:26;;;;;;;9.70;7.35;;;;;;;31.80;39.37;94315.25;6184399;23;20347;-85
2021/07/09 05:29:51;;;;;;;15.45;6.72;;;;;;;32.32;38.74;94330.53;6185237;23;20193;-84
2021/07/09 05:32:22;;;;;;;12.95;6.75;;;;;;;31.85;39.62;94327.69;6162752;23;20442;-85
2021/07/09 05:34:48;;;;;;;7.13;6.40;;;;;;;32.34;39.02;94337.16;6155692;23;20025;-83
2021/07/09 05:37:14;;;;;;;9.32;7.05;;;;;;;32.20;38.69;94315.50;6192793;23;20451;-84
2021/07/09 05:39:40;;;;;;;8.07;7.35;;;;;;;32.03;39.16;94306.34;6193989;23;20004;-83
2021/07/09 05:42:06;;;;;;;10.02;7.82;;;;;;;31.57;40.16;94290.56;6166133;23;20021;-84
2021/07/09 05:44:36;;;;;;;10.07;9.00;;;;;;;31.38;40.76;94289.22;6184430;23;20028;-86
2021/07/09 05:47:02;;;;;;;10.43;8.68;;;;;;;31.73;41.19;94348.13;6156777;23;20021;-87
2021/07/09 06:03:02;;;;;;;10.98;9.13;;;;;;;31.71;41.10;94297.81;6200646;23;20426;-84
2021/07/09 06:05:28;;;;;;;11.23;8.60;;;;;;;31.83;40.63;94335.50;6182351;23;20028;-85
2021/07/09 06:07:53;;;;;;;11.10;9.18;;;;;;;31.82;41.17;94325.75;6188013;23;20233;-85
2021/07/09 06:13:41;;;;;;;11.88;8.93;;;;;;;32.20;39.92;94291.66;6188672;23;20023;-86
2021/07/09 06:16:06;;;;;;;13.40;8.57;;;;;;;32.66;39.49;94333.94;6206542;23;20016;-88
2021/07/09 06:18:33;;;;;;;11.63;8.40;;;;;;;32.78;39.26;94322.41;6213182;23;20497;-85
2021/07/09 06:20:59;;;;;;;12.75;7.63;;;;;;;33.20;38.40;94336.53;6156452;23;20017;-85
2021/07/09 06:23:28;;;;;;;16.50;8.60;;;;;;;33.28;38.12;94296.88;6199539;23;20020;-87
2021/07/09 06:25:54;;;;;;;12.02;7.22;;;;;;;33.46;38.08;94319.22;6200660;23;20017;-89
2021/07/09 06:28:20;;;;;;;7.97;7.18;;;;;;;33.08;38.55;94313.25;6198937;23;20013;-87
2021/07/09 06:30:45;;;;;;;10.35;6.05;;;;;;;33.81;37.50;94288.34;6172873;23;20466;-86
2021/07/09 06:33:13;;;;;;;7.15;6.45;;;;;;;34.16;36.34;94329.91;6173893;23;20063;-85
2021/07/09 06:35:42;;;;;;;9.15;6.90;;;;;;;33.89;36.88;94289.72;6199450;23;20167;-86
2021/07/09 06:38:08;;;;;;;8.45;6.78;;;;;;;34.20;36.61;94306.69;6168555;23;20029;-85
2021/07/09 06:40:33;;;;;;;9.80;7.45;;;;;;;34.55;35.93;94329.00;6204292;23;20019;-86
2021/07/09 06:42:59;;;;;;;9.73;7.32;;;;;;;34.87;35.91;94333.72;6172301;23;20019;-87
2021/07/09 06:45:25;;;;;;;11.32;6.90;;;;;;;35.19;34.66;94322.69;6201156;23;20012;-87
2021/07/09 06:47:50;;;;;;;8.43;6.40;;;;;;;35.40;34.57;94308.38;6156641;23;20021;-85
2021/07/09 06:50:17;;;;;;;7.55;6.75;;;;;;;35.72;33.87;94310.25;6202681;23;20402;-84
2021/07/09 06:52:43;;;;;;;12.10;6.22;;;;;;;35.70;33.33;94309.16;6183167;23;20016;-85
2021/07/09 06:55:13;;;;;;;6.88;6.13;;;;;;;35.93;33.21;94298.63;6204804;23;20178;-84
2021/07/09 06:57:45;;;;;;;12.43;7.07;;;;;;;35.95;33.33;94328.44;6173158;23;20406;-84
2021/07/09 07:00:15;;;;;;;7.75;6.68;;;;;;;36.12;32.52;94287.84;6198613;23;20379;-84
2021/07/09 07:02:40;;;;;;;7.50;5.30;;;;;;;35.98;32.20;94300.81;6198548;23;20074;-87
2021/07/09 07:05:07;;;;;;;6.40;5.80;;;;;;;36.05;31.80;94292.34;6172001;23;20012;-86
2021/07/09 07:07:32;;;;;;;5.38;4.97;;;;;;;36.05;32.02;94311.63;6197183;23;20012;-83
2021/07/09 07:10:01;;;;;;;7.65;5.22;;;;;;;36.94;31.42;94299.78;6209211;23;20084;-84
2021/07/09 07:12:30;;;;;;;6.90;6.20;;;;;;;37.75;29.83;94327.25;6173502;23;20000;-87
2021/07/09 07:14:58;;;;;;;8.93;5.90;;;;;;;37.44;30.79;94329.13;6199962;23;20015;-85
2021/07/09 07:17:23;;;;;;;5.22;4.72;;;;;;;36.63;30.39;94310.66;6201890;23;20027;-86
2021/07/09 07:19:49;;;;;;;8.38;4.90;;;;;;;37.07;29.92;94295.00;6196826;23;20017;-87
2021/07/09 07:22:15;;;;;;;10.48;4.68;;;;;;;37.69;28.96;94318.00;6189264;23;20439;-85
2021/07/09 07:24:41;;;;;;;9.35;5.60;;;;;;;37.87;29.00;94309.09;6170964;23;20432;-85
2021/07/09 07:27:07;;;;;;;5.40;4.90;;;;;;;38.02;28.85;94319.16;6170406;23;20027;-86
2021/07/09 07:46:31;;;;;;;4.93;4.20;;;;;;;38.39;26.76;94283.41;6182627;23;21028;-86
2021/07/09 07:49:00;;;;;;;4.80;4.40;;;;;;;38.23;27.11;94267.09;6170356;23;20373;-85
2021/07/09 07:51:26;;;;;;;8.27;5.28;;;;;;;38.70;27.30;94286.13;6178354;23;20012;-86
2021/07/09 07:53:52;;;;;;;7.65;4.00;;;;;;;39.10;26.54;94295.09;6178496;23;20012;-86
2021/07/09 07:56:22;;;;;;;4.60;3.85;;;;;;;39.03;26.68;94280.81;6196273;23;20015;-85
2021/07/09 07:58:54;;;;;;;9.05;3.80;;;;;;;38.39;27.19;94273.16;6170725;23;20100;-83
2021/07/09 08:01:19;;;;;;;7.10;3.97;;;;;;;38.42;27.18;94286.03;6170367;23;20020;-86
2021/07/09 08:03:45;;;;;;;5.88;4.03;;;;;;;38.24;26.80;94282.44;6213310;23;20011;-85
2021/07/09 08:06:11;;;;;;;5.80;4.28;;;;;;;38.61;26.95;94295.16;6197076;23;20013;-86
2021/07/09 08:08:38;;;;;;;4.22;3.88;;;;;;;37.98;26.70;94301.16;6199485;23;20020;-87
2021/07/09 08:11:11;;;;;;;4.68;3.90;;;;;;;37.32;27.78;94256.31;6182628;23;20380;-89
2021/07/09 08:13:36;;;;;;;7.13;4.35;;;;;;;37.77;27.29;94275.16;6193047;23;20017;-86
2021/07/09 08:16:02;;;;;;;6.85;4.18;;;;;;;37.90;26.77;94264.81;6197896;23;20331;-84
2021/07/09 08:18:28;;;;;;;4.32;3.33;;;;;;;38.93;25.49;94266.25;6208729;23;20003;-84
2021/07/09 08:20:53;;;;;;;5.13;3.60;;;;;;;39.08;25.21;94294.81;6200161;23;20416;-85
2021/07/09 08:23:26;;;;;;;3.88;3.30;;;;;;;38.98;25.13;94296.78;6199439;23;20020;-86
2021/07/09 08:25:52;;;;;;;3.90;3.25;;;;;;;38.69;24.94;94266.03;6171645;23;20019;-86
2021/07/09 08:28:19;;;;;;;4.35;3.95;;;;;;;38.69;25.27;94282.59;6193518;23;20313;-87
2021/07/09 08:30:50;;;;;;;5.13;4.38;;;;;;;38.85;25.45;94268.53;6174019;23;20009;-85
2021/07/09 08:33:18;;;;;;;9.40;5.70;;;;;;;38.14;25.69;94287.16;6118859;23;20024;-84
2021/07/09 08:35:44;;;;;;;5.78;4.60;;;;;;;38.25;26.20;94243.34;6195503;23;20017;-86
2021/07/09 08:38:10;;;;;;;10.98;6.70;;;;;;;37.79;27.93;94245.13;6167840;23;20077;-86
2021/07/09 08:40:36;;;;;;;13.25;7.75;;;;;;;37.92;27.70;94254.09;6181465;23;20032;-83
2021/07/09 08:43:05;;;;;;;9.93;6.05;;;;;;;37.76;26.82;94251.56;6173014;23;20008;-86
2021/07/09 08:45:31;;;;;;;9.10;6.45;;;;;;;38.41;26.92;94283.75;6201474;23;20027;-88
2021/07/09 08:47:57;;;;;;;7.38;6.20;;;;;;;37.86;28.17;94282.72;6198709;23;20040;-87
2021/07/09 08:50:23;;;;;;;9.38;6.50;;;;;;;37.68;29.06;94283.41;6199005;23;20052;-86
2021/07/09 08:53:06;;;;;;;11.13;7.38;;;;;;;37.99;28.07;94259.34;6198523;23;20478;-87
2021/07/09 08:55:32;;;;;;;5.75;4.30;;;;;;;37.90;25.90;94251.00;6206341;23;20099;-86
2021/07/09 08:57:58;;;;;;;6.03;5.53;;;;;;;37.46;27.57;94244.78;6207042;23;19996;-87
2021/07/09 09:00:26;;;;;;;7.32;5.47;;;;;;;37.52;28.18;94278.06;6202753;23;20004;-85
2021/07/09 09:02:52;;;;;;;9.88;5.05;;;;;;;37.17;27.77;94245.03;6196641;23;20025;-83
2021/07/09 09:05:21;;;;;;;9.95;6.13;;;;;;;37.23;28.91;94278.31;6198780;23;20081;-85
2021/07/09 09:07:58;;;;;;;5.72;5.22;;;;;;;37.49;27.68;94265.16;6200265;23;20028;-83
2021/07/09 09:10:34;;;;;;;5.72;4.70;;;;;;;37.39;27.77;94247.03;6173796;23;20013;-82
2021/07/09 09:13:16;;;;;;;8.40;5.30;;;;;;;36.73;27.84;94254.44;6208298;23;20059;-85
2021/07/09 09:15:56;;;;;;;6.85;4.75;;;;;;;36.93;28.56;94271.47;6212744;23;20047;-83
2021/07/09 09:18:29;;;;;;;5.88;5.38;;;;;;;36.53;28.87;94262.19;6198648;23;20091;-86
2021/07/09 09:21:03;;;;;;;8.77;5.20;;;;;;;35.97;30.40;94262.75;6173555;23;20092;-85
2021/07/09 09:23:31;;;;;;;5.70;5.20;;;;;;;35.43;30.49;94216.06;6155997;23;20075;-83
2021/07/09 09:26:02;;;;;;;5.68;5.07;;;;;;;34.73;31.87;94250.53;6198945;23;20075;-86
2021/07/09 09:28:29;;;;;;;8.02;5.85;;;;;;;34.18;33.75;94246.00;6204614;23;20674;-83
2021/07/09 09:30:57;;;;;;;9.50;7.07;;;;;;;33.86;34.78;94245.94;6196378;23;20378;-82
2021/07/09 09:33:31;;;;;;;9.18;8.27;;;;;;;33.55;35.81;94217.25;6210914;23;20020;-85
2021/07/09 09:35:57;;;;;;;8.30;5.80;;;;;;;33.76;35.02;94255.94;6170711;23;20249;-83
2021/07/09 09:38:29;;;;;;;7.80;6.30;;;;;;;32.98;35.73;94257.50;6169569;23;20016;-84
2021/07/09 09:41:00;;;;;;;9.32;6.38;;;;;;;32.81;35.88;94233.97;6201461;23;20024;-87
2021/07/09 09:43:32;;;;;;;6.85;6.25;;;;;;;32.59;36.53;94249.97;6170608;23;20051;-87
2021/07/09 09:46:01;;;;;;;7.03;6.30;;;;;;;31.82;37.30;94203.56;6197143;23;20082;-86
2021/07/09 09:48:42;;;;;;;8.38;6.90;;;;;;;31.72;37.87;94234.53;6172405;23;20036;-88
2021/07/09 09:51:28;;;;;;;11.63;7.32;;;;;;;31.55;38.31;94215.66;6170620;23;20044;-84
2021/07/09 09:54:05;;;;;;;10.40;7.13;;;;;;;31.85;38.64;94237.50;6168139;23;20027;-83
2021/07/09 09:56:37;;;;;;;9.30;6.70;;;;;;;31.57;38.83;94196.94;6199817;23;20119;-85
2021/07/09 09:59:23;;;;;;;9.35;7.18;;;;;;;31.64;38.33;94222.19;6169225;23;20013;-85
2021/07/09 10:01:56;;;;;;;7.97;6.30;;;;;;;31.95;37.64;94239.28;6172263;23;20584;-82
2021/07/09 10:04:23;;;;;;;11.13;6.47;;;;;;;31.78;37.28;94202.84;6178544;23;20020;-84
2021/07/09 10:06:49;;;;;;;8.25;6.15;;;;;;;31.96;37.88;94201.81;6198072;23;20008;-83
2021/07/09 10:09:16;;;;;;;8.95;5.95;;;;;;;31.98;36.67;94191.97;6177074;23;20015;-85
2021/07/09 10:11:45;;;;;;;8.02;6.43;;;;;;;32.16;38.56;94233.50;6157261;23;20339;-87
2021/07/09 10:14:13;;;;;;;7.85;6.75;;;;;;;31.51;38.14;94199.31;6200151;23;20017;-82
2021/07/09 10:16:40;;;;;;;9.38;7.28;;;;;;;31.54;38.07;94211.38;6198947;23;20017;-83
2021/07/09 10:19:12;;;;;;;7.50;6.68;;;;;;;31.51;38.79;94236.78;6200779;23;20012;-84
2021/07/09 10:21:38;;;;;;;7.50;6.50;;;;;;;31.08;38.47;94231.88;6176090;23;20000;-85
2021/07/09 10:24:06;;;;;;;11.63;7.22;;;;;;;31.24;38.88;94226.59;6195707;23;20012;-84
2021/07/09 10:26:39;;;;;;;7.50;6.75;;;;;;;31.14;39.18;94208.38;6198463;23;20013;-85
2021/07/09 10:29:16;;;;;;;7.65;6.88;;;;;;;30.99;39.13;94179.69;6202706;23;20051;-86
2021/07/09 10:31:52;;;;;;;9.73;6.22;;;;;;;31.10;38.34;94196.72;6202255;23;20016;-85
2021/07/09 10:34:30;;;;;;;6.28;5.70;;;;;;;30.90;39.28;94176.69;6182277;23;20020;-87
2021/07/09 10:37:20;;;;;;;9.57;7.00;;;;;;;31.14;39.24;94202.91;6098126;23;19997;-87
2021/07/09 10:39:48;;;;;;;7.75;6.60;;;;;;;31.08;39.22;94196.38;6152836;23;20000;-82
2021/07/09 10:42:26;;;;;;;7.43;6.72;;;;;;;31.10;39.33;94204.16;6171312;23;20016;-82
2021/07/09 10:45:03;;;;;;;7.88;6.10;;;;;;;30.92;39.68;94196.16;6199890;23;20008;-85
2021/07/09 10:48:11;;;;;;;6.30;5.60;;;;;;;30.64;39.19;94194.53;6198730;23;20119;-84
2021/07/09 10:50:46;;;;;;;6.18;5.57;;;;;;;30.37;40.00;94158.16;6045889;23;20600;-86
2021/07/09 10:53:11;;;;;;;10.07;6.40;;;;;;;30.80;39.47;94193.94;6107442;23;20049;-88
2021/07/09 10:55:43;;;;;;;9.45;6.07;;;;;;;30.69;39.53;94182.41;6152080;23;20462;-87
2021/07/09 10:58:09;;;;;;;6.05;5.25;;;;;;;30.88;39.42;94184.50;6162381;23;20055;-84
2021/07/09 11:00:49;;;;;;;15.65;6.95;;;;;;;30.48;40.38;94146.00;6175375;23;20551;-86
2021/07/09 11:03:38;;;;;;;6.97;5.50;;;;;;;30.97;38.81;94174.66;6173366;23;20109;-84
2021/07/09 11:06:32;;;;;;;5.30;4.78;;;;;;;31.02;39.83;94184.38;6161587;23;20800;-86
2021/07/09 11:09:03;;;;;;;6.07;5.13;;;;;;;31.10;39.10;94182.31;6169567;23;20047;-85
2021/07/09 11:11:30;;;;;;;5.93;5.22;;;;;;;31.15;39.64;94174.44;6191830;23;20071;-87
2021/07/09 11:14:02;;;;;;;5.47;4.97;;;;;;;30.86;38.18;94145.94;6196034;23;20021;-85
2021/07/09 11:16:30;;;;;;;4.45;4.05;;;;;;;31.12;39.26;94167.09;6180214;23;20035;-84
2021/07/09 11:19:07;;;;;;;4.32;4.00;;;;;;;31.27;37.92;94165.72;6178527;23;20004;-86
2021/07/09 11:21:36;;;;;;;6.93;5.00;;;;;;;31.23;37.94;94167.69;6212130;23;20062;-84
2021/07/09 11:24:08;;;;;;;5.25;4.05;;;;;;;30.96;38.55;94164.13;6197618;23;20047;-84
2021/07/09 11:26:42;;;;;;;5.80;4.15;;;;;;;30.72;38.46;94143.38;6159563;23;20016;-87
2021/07/09 11:29:29;;;;;;;4.85;4.45;;;;;;;30.95;37.87;94162.56;6148762;23;20082;-88
2021/07/09 11:32:00;;;;;;;6.15;4.40;;;;;;;30.54;38.15;94105.41;6181737;23;20119;-86
2021/07/09 11:34:28;;;;;;;5.13;3.83;;;;;;;30.45;37.45;94107.81;6199839;23;20008;-86
2021/07/09 11:37:00;;;;;;;3.33;2.85;;;;;;;30.83;37.93;94144.03;6196438;23;20005;-88
2021/07/09 11:39:25;;;;;;;5.53;3.55;;;;;;;30.71;37.52;94152.75;6170245;23;20571;-84
2021/07/09 11:42:01;;;;;;;8.02;4.10;;;;;;;30.64;37.47;94122.84;6180573;23;20024;-89
2021/07/09 11:44:27;;;;;;;3.90;3.45;;;;;;;30.92;37.13;94136.13;6112792;23;20021;-89
2021/07/09 11:46:56;;;;;;;4.00;3.70;;;;;;;30.38;37.81;94080.63;6138274;23;20050;-85
2021/07/09 11:49:30;;;;;;;4.72;4.18;;;;;;;30.74;38.15;94116.47;6172998;23;20112;-87
2021/07/09 11:52:00;;;;;;;;;;;;;;;30.96;37.44;94131.38;6155668;23;20429;-87
2021/07/09 11:54:33;;;;;;;4.03;3.63;;;;;;;30.73;37.35;94091.16;6157368;23;19912;-86
2021/07/09 11:57:07;;;;;;;3.80;3.50;;;;;;;30.91;36.84;94102.59;6160160;23;20470;-88
2021/07/09 11:59:38;;;;;;;5.10;3.50;;;;;;;30.86;37.60;94083.94;6165127;23;20017;-84
2021/07/09 12:02:13;;;;;;;3.75;3.28;;;;;;;31.16;36.45;94126.06;6168119;23;20040;-85
2021/07/09 12:04:40;;;;;;;3.97;3.47;;;;;;;31.32;36.20;94126.25;6166183;23;20434;-85
2021/07/09 12:07:26;;;;;;;5.40;3.88;;;;;;;31.26;36.64;94128.66;6117469;23;20017;-88
2021/07/09 12:10:04;;;;;;;3.72;3.42;;;;;;;31.09;36.31;94115.25;6174870;23;20001;-83
2021/07/09 12:13:03;;;;;;;4.05;3.75;;;;;;;31.18;36.40;94116.28;6170939;23;20104;-86
2021/07/09 12:15:31;;;;;;;4.40;4.00;;;;;;;31.17;36.89;94125.66;6163650;23;20487;-84
2021/07/09 12:18:02;;;;;;;6.50;4.10;;;;;;;31.26;36.27;94128.66;6168381;23;20021;-84